Forside
METAR-TAF:

METAR-TAF

Lufthavne :

St. Paul Downtown Airport (Holman Field)

Saint Paul, Minnesota, USA

Breddekreds: 44-55-49N, længdekreds: 093-02-53W, højde: 214 m

Aktuelle vejr

Denne rapport blev lavet for 1 time og 11 minutter siden, kl. 10:53 UTC
Vind 7 kt fra sydsydøst
Temperatur 17°C
Fugtighed 82%
Tryk 1017 hPa
Sigt: 16.1 km
skyfri

METAR: KSTP 121053Z AUTO 15007KT 10SM CLR 17/14 A3003 RMK AO2 SLP162 T01720144 TSNO

Tid: 07:04 (12:04 UTC)


TAF: fraværende

Vejrobservationer og prognoser fra mere end 4000 lufthavne (METAR og TAF).

De gule og røde prikker repræsenterer de meteorologiske stationer.

Flyt musen over at se navnet på stationen.

Så klik over at se vejr observationer og prognoser.

At skifte det kort: Klik på de grønne knapper med et sort kors for at zoome ind; på den grønne knap med en bindestreg for at zoome ud; eller på de grønne pile for tilstødende kort.


METAR-TAF: